createdAt,value
2022-08-18T00:01:06.124Z,9.10
2022-08-18T00:03:57.200Z,6.85
2022-08-18T00:06:20.136Z,10.30
2022-08-18T00:08:46.916Z,7.25
2022-08-18T00:13:40.445Z,7.40
2022-08-18T00:18:33.831Z,6.25
2022-08-18T00:23:29.787Z,7.13
2022-08-18T00:25:57.627Z,8.52
2022-08-18T00:28:26.322Z,7.25
2022-08-18T00:30:53.890Z,8.05
2022-08-18T00:33:21.786Z,10.15
2022-08-18T00:35:49.264Z,9.38
2022-08-18T00:38:24.417Z,10.98
2022-08-18T00:40:53.763Z,7.97
2022-08-18T00:43:34.702Z,8.95
2022-08-18T00:46:02.256Z,9.52
2022-08-18T00:48:29.175Z,8.18
2022-08-18T00:53:34.756Z,6.68
2022-08-18T00:56:08.526Z,9.15
2022-08-18T00:58:42.911Z,11.00
2022-08-18T01:01:12.721Z,10.93
2022-08-18T01:03:42.368Z,9.05
2022-08-18T01:06:23.556Z,10.98
2022-08-18T01:08:50.513Z,8.98
2022-08-18T01:11:17.316Z,10.30
2022-08-18T01:16:30.327Z,7.70
2022-08-18T01:19:15.785Z,9.73
2022-08-18T01:21:52.462Z,8.35
2022-08-18T01:24:47.623Z,9.57
2022-08-18T01:27:18.562Z,8.23
2022-08-18T01:29:47.912Z,10.88
2022-08-18T01:32:19.585Z,8.20
2022-08-18T01:34:51.823Z,7.93
2022-08-18T01:37:22.326Z,8.65
2022-08-18T01:41:22.838Z,10.35
2022-08-18T01:42:37.454Z,10.95
2022-08-18T01:45:07.836Z,9.15
2022-08-18T01:47:48.321Z,8.27
2022-08-18T01:50:17.222Z,7.07
2022-08-18T01:52:44.150Z,8.48
2022-08-18T01:55:11.047Z,7.68
2022-08-18T01:57:45.101Z,6.72
2022-08-18T02:00:17.929Z,7.72
2022-08-18T02:02:44.927Z,9.50
2022-08-18T02:05:31.536Z,15.57
2022-08-18T02:07:58.301Z,9.43
2022-08-18T02:10:25.437Z,7.50
2022-08-18T02:12:52.184Z,7.00
2022-08-18T02:15:18.979Z,9.18
2022-08-18T02:20:15.902Z,6.03
2022-08-18T02:22:43.508Z,5.45
2022-08-18T02:25:11.760Z,7.53
2022-08-18T02:27:38.644Z,6.38
2022-08-18T02:30:08.792Z,6.00
2022-08-18T02:32:35.850Z,9.80
2022-08-18T02:35:10.274Z,9.98
2022-08-18T02:37:42.144Z,8.02
2022-08-18T02:40:15.091Z,7.88
2022-08-18T02:42:44.586Z,7.65
2022-08-18T02:45:13.236Z,5.93
2022-08-18T02:47:40.117Z,5.80
2022-08-18T02:52:35.005Z,7.38
2022-08-18T02:55:02.263Z,6.10
2022-08-18T02:57:30.804Z,7.50
2022-08-18T02:59:57.595Z,8.82
2022-08-18T03:02:26.972Z,7.00
2022-08-18T03:04:53.774Z,8.30
2022-08-18T03:09:47.359Z,9.20
2022-08-18T03:14:40.962Z,7.63
2022-08-18T03:19:36.081Z,6.65
2022-08-18T03:22:03.709Z,5.13
2022-08-18T03:24:32.450Z,5.85
2022-08-18T03:27:01.643Z,6.00
2022-08-18T03:29:32.466Z,6.95
2022-08-18T03:32:01.668Z,5.82
2022-08-18T03:34:28.684Z,9.13
2022-08-18T03:36:55.585Z,8.45
2022-08-18T03:41:58.053Z,8.23
2022-08-18T03:44:30.548Z,9.50
2022-08-18T03:46:58.003Z,7.63
2022-08-18T03:49:25.026Z,8.63
2022-08-18T03:51:51.839Z,5.72
2022-08-18T03:56:47.809Z,6.78
2022-08-18T03:59:18.038Z,6.75
2022-08-18T04:01:47.173Z,8.93
2022-08-18T04:04:17.285Z,6.68
2022-08-18T04:06:57.114Z,6.25
2022-08-18T04:09:25.924Z,8.57
2022-08-18T04:11:52.869Z,7.00
2022-08-18T04:14:24.669Z,7.30
2022-08-18T04:16:51.445Z,6.00
2022-08-18T04:21:56.635Z,11.80
2022-08-18T04:24:24.005Z,9.13
2022-08-18T04:26:51.961Z,9.27
2022-08-18T04:29:21.316Z,10.80
2022-08-18T04:31:50.147Z,7.00
2022-08-18T04:34:18.073Z,7.60
2022-08-18T04:36:44.963Z,10.65
2022-08-18T04:41:43.088Z,8.35
2022-08-18T04:44:11.528Z,7.75
2022-08-18T04:46:51.613Z,9.32
2022-08-18T04:49:20.382Z,9.15
2022-08-18T04:52:26.795Z,7.82
2022-08-18T04:54:55.297Z,10.13
2022-08-18T04:57:23.008Z,8.63
2022-08-18T04:59:52.089Z,6.93
2022-08-18T05:02:20.297Z,7.72
2022-08-18T05:04:47.361Z,13.23
2022-08-18T05:07:17.838Z,9.32
2022-08-18T05:09:44.774Z,10.00
2022-08-18T05:12:14.143Z,11.30
2022-08-18T05:14:42.204Z,10.80
2022-08-18T05:17:09.019Z,8.98
2022-08-18T05:22:10.843Z,7.10
2022-08-18T05:24:39.676Z,8.07
2022-08-18T05:27:07.565Z,12.57
2022-08-18T05:29:41.788Z,11.32
2022-08-18T05:32:37.354Z,14.63
2022-08-18T05:35:10.010Z,7.72
2022-08-18T05:37:51.663Z,9.13
2022-08-18T05:40:22.798Z,10.50
2022-08-18T05:42:49.933Z,12.05
2022-08-18T05:45:18.704Z,11.48
2022-08-18T05:47:45.791Z,11.73
2022-08-18T05:50:17.211Z,13.85
2022-08-18T05:52:52.244Z,10.73
2022-08-18T05:55:58.599Z,11.70
2022-08-18T05:58:33.282Z,11.05
2022-08-18T06:01:18.605Z,11.35
2022-08-18T06:03:57.135Z,12.80
2022-08-18T06:06:29.525Z,15.02
2022-08-18T06:09:07.604Z,12.30
2022-08-18T06:11:34.522Z,12.70
2022-08-18T06:14:01.505Z,13.32
2022-08-18T06:16:53.417Z,11.73
2022-08-18T06:19:32.771Z,11.82
2022-08-18T06:22:18.709Z,13.88
2022-08-18T06:25:13.972Z,15.52
2022-08-18T06:27:55.531Z,15.90
2022-08-18T06:31:04.099Z,13.93
2022-08-18T06:33:43.757Z,13.38
2022-08-18T06:36:30.774Z,13.45
2022-08-18T06:39:01.327Z,12.60
2022-08-18T06:41:48.700Z,13.27
2022-08-18T06:44:37.920Z,15.45
2022-08-18T06:47:19.747Z,12.38
2022-08-18T06:50:08.388Z,14.75
2022-08-18T06:52:51.184Z,14.45
2022-08-18T06:55:31.021Z,13.80
2022-08-18T06:58:05.488Z,15.45
2022-08-18T07:00:35.447Z,11.95
2022-08-18T07:03:07.828Z,23.00
2022-08-18T07:05:36.985Z,14.98
2022-08-18T07:08:22.472Z,12.95
2022-08-18T07:10:51.557Z,16.35
2022-08-18T07:13:26.476Z,13.30
2022-08-18T07:15:56.673Z,12.95
2022-08-18T07:18:29.778Z,14.93
2022-08-18T07:20:59.915Z,18.15
2022-08-18T07:23:39.384Z,15.73
2022-08-18T07:26:18.471Z,14.55
2022-08-18T07:28:48.615Z,14.27
2022-08-18T07:31:19.418Z,12.45
2022-08-18T07:34:13.358Z,12.85
2022-08-18T07:36:47.565Z,13.05
2022-08-18T07:39:31.853Z,12.95
2022-08-18T07:42:10.854Z,11.93
2022-08-18T07:44:40.468Z,15.90
2022-08-18T07:47:18.133Z,13.27
2022-08-18T07:50:15.818Z,12.68
2022-08-18T07:52:47.379Z,10.25
2022-08-18T07:55:35.502Z,11.98
2022-08-18T07:58:34.592Z,10.88
2022-08-18T08:01:46.858Z,10.13
2022-08-18T08:04:24.985Z,11.57
2022-08-18T08:07:25.032Z,9.90
2022-08-18T08:10:01.167Z,10.75
2022-08-18T08:12:43.810Z,11.65
2022-08-18T08:15:27.183Z,9.30
2022-08-18T08:18:15.425Z,10.02
2022-08-18T08:20:54.662Z,8.75
2022-08-18T08:23:32.329Z,9.63
2022-08-18T08:26:29.850Z,11.15
2022-08-18T08:29:09.913Z,9.18
2022-08-18T08:32:03.195Z,11.40
2022-08-18T08:34:45.209Z,9.48
2022-08-18T08:37:23.433Z,8.88
2022-08-18T08:39:57.837Z,8.23
2022-08-18T08:42:47.268Z,9.80
2022-08-18T08:45:20.363Z,5.75
2022-08-18T08:47:58.511Z,6.50
2022-08-18T08:50:41.209Z,7.38
2022-08-18T08:53:13.186Z,7.43
2022-08-18T08:55:50.717Z,7.78
2022-08-18T08:58:42.840Z,8.57
2022-08-18T09:01:23.638Z,9.15
2022-08-18T09:04:01.975Z,5.68
2022-08-18T09:06:43.324Z,9.52
2022-08-18T09:09:42.504Z,6.28
2022-08-18T09:12:36.752Z,6.93
2022-08-18T09:15:45.265Z,5.28
2022-08-18T09:18:34.187Z,5.90
2022-08-18T09:21:19.014Z,6.15
2022-08-18T09:23:50.819Z,5.25
2022-08-18T09:27:05.494Z,5.13
2022-08-18T09:29:44.282Z,5.35
2022-08-18T09:32:22.689Z,5.60
2022-08-18T09:35:20.076Z,7.63
2022-08-18T09:38:36.334Z,6.55
2022-08-18T09:41:31.413Z,5.47
2022-08-18T09:49:26.533Z,5.20
2022-08-18T09:55:31.965Z,7.95
2022-08-18T09:58:22.835Z,7.95
2022-08-18T10:01:34.504Z,7.53
2022-08-18T10:04:15.369Z,10.98
2022-08-18T10:06:48.334Z,7.40
2022-08-18T10:09:36.259Z,9.40
2022-08-18T10:12:10.636Z,10.70
2022-08-18T10:15:14.316Z,10.50
2022-08-18T10:18:24.319Z,11.68
2022-08-18T10:21:31.190Z,11.43
2022-08-18T10:26:57.119Z,10.18
2022-08-18T10:29:23.835Z,10.07
2022-08-18T10:31:59.844Z,12.88
2022-08-18T10:34:52.908Z,8.35
2022-08-18T10:40:09.593Z,12.02
2022-08-18T10:46:24.478Z,11.43
2022-08-18T10:48:57.270Z,8.70
2022-08-18T10:51:57.971Z,11.00
2022-08-18T10:54:45.615Z,9.60
2022-08-18T10:58:00.564Z,13.20
2022-08-18T11:00:54.697Z,12.98
2022-08-18T11:03:51.343Z,10.10
2022-08-18T11:06:24.664Z,9.73
2022-08-18T11:08:58.261Z,10.32
2022-08-18T11:11:42.560Z,14.38
2022-08-18T11:14:35.045Z,13.50
2022-08-18T11:17:24.981Z,11.57
2022-08-18T11:19:54.521Z,12.55
2022-08-18T11:22:32.320Z,11.75
2022-08-18T11:25:01.542Z,8.32
2022-08-18T11:27:37.422Z,10.10
2022-08-18T11:30:12.301Z,15.10
2022-08-18T11:35:35.378Z,7.50
2022-08-18T11:38:04.306Z,15.02
2022-08-18T11:43:41.647Z,7.50
2022-08-18T11:49:33.998Z,7.75
2022-08-18T11:57:31.891Z,8.73
2022-08-18T12:00:00.401Z,7.57
2022-08-18T12:02:27.975Z,9.35
2022-08-18T12:05:08.715Z,6.47
2022-08-18T12:07:45.391Z,11.75
2022-08-18T12:10:30.711Z,6.85
2022-08-18T12:13:00.301Z,10.93
2022-08-18T12:15:46.660Z,6.93
2022-08-18T12:18:26.441Z,7.10
2022-08-18T12:20:58.676Z,7.45
2022-08-18T12:23:26.003Z,6.13
2022-08-18T12:25:52.766Z,7.22
2022-08-18T12:28:22.842Z,6.07
2022-08-18T12:30:56.437Z,5.85
2022-08-18T12:33:48.246Z,5.53
2022-08-18T12:36:29.693Z,12.82
2022-08-18T12:38:57.202Z,5.57
2022-08-18T12:41:24.741Z,5.75
2022-08-18T12:43:59.173Z,5.65
2022-08-18T12:46:27.228Z,5.35
2022-08-18T12:48:54.180Z,7.10
2022-08-18T12:51:24.727Z,5.03
2022-08-18T12:56:48.728Z,8.20
2022-08-18T12:59:16.373Z,10.80
2022-08-18T13:01:44.683Z,8.80
2022-08-18T13:04:14.107Z,11.60
2022-08-18T13:06:59.060Z,9.05
2022-08-18T13:09:35.766Z,8.88
2022-08-18T13:12:20.071Z,9.35
2022-08-18T13:14:48.099Z,9.25
2022-08-18T13:17:32.098Z,9.32
2022-08-18T13:20:06.283Z,9.90
2022-08-18T13:22:34.749Z,9.75
2022-08-18T13:25:03.766Z,7.75
2022-08-18T13:27:35.283Z,10.30
2022-08-18T13:30:30.554Z,8.55
2022-08-18T13:32:59.107Z,7.60
2022-08-18T13:35:29.942Z,9.88
2022-08-18T13:38:12.473Z,10.32
2022-08-18T13:40:48.492Z,7.43
2022-08-18T13:43:17.831Z,9.07
2022-08-18T13:45:47.025Z,9.57
2022-08-18T13:48:20.090Z,7.63
2022-08-18T13:50:47.767Z,11.25
2022-08-18T13:53:20.262Z,10.65
2022-08-18T13:55:48.417Z,11.02
2022-08-18T13:58:20.554Z,6.97
2022-08-18T14:01:01.900Z,10.10
2022-08-18T14:03:47.307Z,13.50
2022-08-18T14:06:15.805Z,17.52
2022-08-18T14:08:49.502Z,10.43
2022-08-18T14:11:17.383Z,11.52
2022-08-18T14:13:45.016Z,9.45
2022-08-18T14:16:18.926Z,12.10
2022-08-18T14:19:10.022Z,10.65
2022-08-18T14:22:10.986Z,10.07
2022-08-18T14:24:57.843Z,10.07
2022-08-18T14:27:34.895Z,8.02
2022-08-18T14:30:14.765Z,8.60
2022-08-18T14:32:49.314Z,9.02
2022-08-18T14:35:33.041Z,8.65
2022-08-18T14:38:08.147Z,13.55
2022-08-18T14:40:41.707Z,9.77
2022-08-18T14:43:14.607Z,10.57
2022-08-18T14:45:48.637Z,10.18
2022-08-18T14:48:22.096Z,7.38
2022-08-18T14:50:54.409Z,9.48
2022-08-18T14:53:26.264Z,9.07
2022-08-18T14:55:54.684Z,9.95
2022-08-18T14:58:28.757Z,9.10
2022-08-18T15:01:01.698Z,17.80
2022-08-18T15:03:31.052Z,12.43
2022-08-18T15:05:59.546Z,13.23
2022-08-18T15:08:26.669Z,14.88
2022-08-18T15:10:54.425Z,16.02
2022-08-18T15:13:25.019Z,15.80
2022-08-18T15:15:53.590Z,13.63
2022-08-18T15:18:22.296Z,14.77
2022-08-18T15:21:10.176Z,21.92
2022-08-18T15:24:04.963Z,16.33
2022-08-18T15:26:43.823Z,15.15
2022-08-18T15:29:11.572Z,16.90
2022-08-18T15:31:49.897Z,14.38
2022-08-18T15:34:17.548Z,15.80
2022-08-18T15:36:47.730Z,14.07
2022-08-18T15:39:15.558Z,14.00
2022-08-18T15:41:48.567Z,16.50
2022-08-18T15:44:18.316Z,11.85
2022-08-18T15:46:51.157Z,12.52
2022-08-18T15:49:21.715Z,14.90
2022-08-18T15:51:50.669Z,16.33
2022-08-18T15:54:19.809Z,15.95
2022-08-18T15:56:57.657Z,14.50
2022-08-18T15:59:33.038Z,16.73
2022-08-18T16:02:02.195Z,15.85
2022-08-18T16:04:29.033Z,19.30
2022-08-18T16:06:56.246Z,15.52
2022-08-18T16:09:23.085Z,17.65
2022-08-18T16:11:50.094Z,19.92
2022-08-18T16:14:17.028Z,20.55
2022-08-18T16:16:43.783Z,17.35
2022-08-18T16:19:10.661Z,16.92
2022-08-18T16:21:40.968Z,20.02
2022-08-18T16:24:08.492Z,21.23
2022-08-18T16:26:35.691Z,17.67
2022-08-18T16:29:02.764Z,19.75
2022-08-18T16:31:29.553Z,17.33
2022-08-18T16:33:57.910Z,16.58
2022-08-18T16:36:25.783Z,19.00
2022-08-18T16:38:54.077Z,18.48
2022-08-18T16:41:26.242Z,15.63
2022-08-18T16:43:53.121Z,14.18
2022-08-18T16:46:25.190Z,14.77
2022-08-18T16:48:53.447Z,17.88
2022-08-18T16:51:22.396Z,15.10
2022-08-18T16:53:52.183Z,21.85
2022-08-18T16:56:26.499Z,15.82
2022-08-18T16:59:11.840Z,18.50
2022-08-18T17:01:57.822Z,13.38
2022-08-18T17:04:28.740Z,15.73
2022-08-18T17:06:56.704Z,15.88
2022-08-18T17:09:24.242Z,12.40
2022-08-18T17:11:52.542Z,9.57
2022-08-18T17:14:22.143Z,14.10
2022-08-18T17:16:51.086Z,11.32
2022-08-18T17:19:17.902Z,14.30
2022-08-18T17:21:44.980Z,10.43
2022-08-18T17:24:12.371Z,10.55
2022-08-18T17:26:51.221Z,11.57
2022-08-18T17:29:20.822Z,9.32
2022-08-18T17:31:57.540Z,9.75
2022-08-18T17:34:36.875Z,6.75
2022-08-18T17:37:08.884Z,10.45
2022-08-18T17:39:44.131Z,7.70
2022-08-18T17:42:25.905Z,8.07
2022-08-18T17:44:56.558Z,6.38
2022-08-18T17:47:30.302Z,8.75
2022-08-18T17:50:28.232Z,7.18
2022-08-18T17:55:42.431Z,6.25
2022-08-18T17:58:18.519Z,6.88
2022-08-18T18:00:45.336Z,5.82
2022-08-18T18:05:43.644Z,3.83
2022-08-18T18:08:10.723Z,5.38
2022-08-18T18:13:34.222Z,8.18
2022-08-18T18:16:21.395Z,4.85
2022-08-18T18:19:03.061Z,7.15
2022-08-18T18:21:57.548Z,7.35
2022-08-18T18:24:28.425Z,5.38
2022-08-18T18:26:55.267Z,9.00
2022-08-18T18:29:30.672Z,7.88
2022-08-18T18:32:01.657Z,10.07
2022-08-18T18:34:32.534Z,8.20
2022-08-18T18:37:01.081Z,10.20
2022-08-18T18:39:37.453Z,11.45
2022-08-18T18:42:17.507Z,9.90
2022-08-18T18:44:51.913Z,7.47
2022-08-18T18:47:45.093Z,6.82
2022-08-18T18:50:39.603Z,8.55
2022-08-18T18:53:55.234Z,7.07
2022-08-18T18:56:36.280Z,10.60
2022-08-18T18:59:23.331Z,8.15
2022-08-18T19:02:34.897Z,8.07
2022-08-18T19:05:27.346Z,8.23
2022-08-18T19:08:03.801Z,9.15
2022-08-18T19:10:46.324Z,10.97
2022-08-18T19:13:32.733Z,10.77
2022-08-18T19:16:24.225Z,15.73
2022-08-18T19:19:38.170Z,10.50
2022-08-18T19:22:06.837Z,8.63
2022-08-18T19:24:42.857Z,9.10
2022-08-18T19:27:17.518Z,11.10
2022-08-18T19:29:54.044Z,10.30
2022-08-18T19:32:28.926Z,13.18
2022-08-18T19:34:57.030Z,10.80
2022-08-18T19:37:40.353Z,10.38
2022-08-18T19:40:19.888Z,11.07
2022-08-18T19:43:05.312Z,8.82
2022-08-18T19:45:40.350Z,9.73
2022-08-18T19:48:27.018Z,9.75
2022-08-18T19:51:04.865Z,14.48
2022-08-18T19:53:52.465Z,9.43
2022-08-18T19:56:38.193Z,9.82
2022-08-18T19:59:19.579Z,10.15
2022-08-18T20:01:56.702Z,17.67
2022-08-18T20:04:45.427Z,11.30
2022-08-18T20:07:29.528Z,9.43
2022-08-18T20:09:57.434Z,10.70
2022-08-18T20:12:57.023Z,12.07
2022-08-18T20:15:26.555Z,18.67
2022-08-18T20:17:54.094Z,12.75
2022-08-18T20:20:27.016Z,13.40
2022-08-18T20:22:57.621Z,14.27
2022-08-18T20:25:24.811Z,15.63
2022-08-18T20:28:23.528Z,12.68
2022-08-18T20:31:07.885Z,11.27
2022-08-18T20:33:43.297Z,11.73
2022-08-18T20:36:30.895Z,10.40
2022-08-18T20:39:00.183Z,13.10
2022-08-18T20:41:30.999Z,13.60
2022-08-18T20:44:28.973Z,9.63
2022-08-18T20:47:19.420Z,10.77
2022-08-18T20:50:02.831Z,10.68
2022-08-18T20:52:48.589Z,10.27
2022-08-18T20:55:38.319Z,12.50
2022-08-18T20:58:15.312Z,16.65
2022-08-18T21:00:47.010Z,11.40
2022-08-18T21:03:16.399Z,11.50
2022-08-18T21:05:45.360Z,9.80
2022-08-18T21:08:16.227Z,11.85
2022-08-18T21:10:51.063Z,13.20
2022-08-18T21:13:47.065Z,19.90
2022-08-18T21:16:27.202Z,27.17
2022-08-18T21:19:20.070Z,14.43
2022-08-18T21:21:57.015Z,14.48
2022-08-18T21:24:29.621Z,15.07
2022-08-18T21:27:04.436Z,16.67
2022-08-18T21:29:46.969Z,12.38
2022-08-18T21:32:22.418Z,10.63
2022-08-18T21:34:49.300Z,12.00
2022-08-18T21:37:18.028Z,13.15
2022-08-18T21:39:58.167Z,12.13
2022-08-18T21:42:42.424Z,12.85
2022-08-18T21:45:22.378Z,11.02
2022-08-18T21:47:56.521Z,9.48
2022-08-18T21:50:26.131Z,10.38
2022-08-18T21:53:02.723Z,10.45
2022-08-18T21:55:32.524Z,11.23
2022-08-18T21:58:04.813Z,11.90
2022-08-18T22:00:43.606Z,13.52
2022-08-18T22:03:20.620Z,11.00
2022-08-18T22:06:01.600Z,11.95
2022-08-18T22:08:32.531Z,10.18
2022-08-18T22:12:01.380Z,10.75
2022-08-18T22:14:32.978Z,15.77
2022-08-18T22:17:43.029Z,16.42
2022-08-18T22:20:31.486Z,15.10
2022-08-18T22:23:46.039Z,13.27
2022-08-18T22:26:34.973Z,11.48
2022-08-18T22:29:27.655Z,13.25
2022-08-18T22:31:55.048Z,13.43
2022-08-18T22:34:26.981Z,12.45
2022-08-18T22:37:02.886Z,11.48
2022-08-18T22:39:37.694Z,11.68
2022-08-18T22:42:05.169Z,12.05
2022-08-18T22:44:32.395Z,12.10
2022-08-18T22:46:59.604Z,18.60
2022-08-18T22:49:26.388Z,16.15
2022-08-18T22:54:23.066Z,14.48
2022-08-18T22:56:56.351Z,14.32
2022-08-18T22:59:26.746Z,14.98
2022-08-18T23:01:55.034Z,11.38
2022-08-18T23:04:24.536Z,17.40
2022-08-18T23:06:52.663Z,14.20
2022-08-18T23:09:30.896Z,12.15
2022-08-18T23:12:04.797Z,11.68
2022-08-18T23:14:33.292Z,16.27
2022-08-18T23:17:01.639Z,10.65
2022-08-18T23:19:31.410Z,13.10
2022-08-18T23:21:59.884Z,14.05
2022-08-18T23:24:27.151Z,12.65
2022-08-18T23:26:53.957Z,11.23
2022-08-18T23:29:23.879Z,12.45
2022-08-18T23:31:51.742Z,14.02
2022-08-18T23:34:21.427Z,17.67
2022-08-18T23:36:55.382Z,11.90
2022-08-18T23:39:23.582Z,11.75
2022-08-18T23:41:53.855Z,11.95
2022-08-18T23:44:27.453Z,11.05
2022-08-18T23:46:58.338Z,11.80
2022-08-18T23:49:30.326Z,11.25
2022-08-18T23:51:58.720Z,11.52
2022-08-18T23:54:29.291Z,13.20
2022-08-18T23:56:56.657Z,12.80
2022-08-18T23:59:25.071Z,14.55
